Time;durP1;ratioP1;P1;durP2;ratioP2;P2;SDS_P1;SDS_P2;PMS_P1;PMS_P2;Temp;Humidity;BMP_temperature;BMP_pressure;BME280_temperature;BME280_humidity;BME280_pressure;Samples;Min_cycle;Max_cycle;Signal;HPM_P1;HPM_P2
2021/01/29 00:00:17;;;;;;;6.95;5.70;;;;;;;3.95;71.23;98672.03;1767630;80;21599;-50
2021/01/29 00:03:24;;;;;;;9.58;6.55;;;;;;;3.96;71.02;98668.33;1767544;81;21374;-50
2021/01/29 00:06:29;;;;;;;9.28;6.92;;;;;;;4.01;70.86;98663.73;1767576;81;21411;-51
2021/01/29 00:09:36;;;;;;;10.08;7.22;;;;;;;4.04;70.63;98665.55;1767621;80;21370;-50
2021/01/29 00:12:41;;;;;;;9.93;7.35;;;;;;;4.05;70.51;98674.03;1767511;81;21409;-49
2021/01/29 00:15:47;;;;;;;8.43;6.83;;;;;;;4.07;70.40;98672.00;1767555;80;21228;-50
2021/01/29 00:18:54;;;;;;;9.30;6.53;;;;;;;4.07;70.35;98667.94;1767555;81;21217;-50
2021/01/29 00:22:01;;;;;;;7.53;5.50;;;;;;;4.08;70.19;98658.78;1767687;81;21350;-51
2021/01/29 00:25:07;;;;;;;8.25;5.72;;;;;;;4.06;70.13;98659.46;1767555;80;21264;-50
2021/01/29 00:28:14;;;;;;;5.95;4.58;;;;;;;4.03;69.98;98667.94;1767590;81;21350;-50
2021/01/29 00:31:19;;;;;;;5.67;4.80;;;;;;;4.01;70.08;98675.38;1767761;80;21951;-51
2021/01/29 00:34:26;;;;;;;5.83;4.67;;;;;;;4.01;69.98;98665.09;1767412;80;21244;-50
2021/01/29 00:37:32;;;;;;;7.33;5.50;;;;;;;3.95;70.03;98666.63;1767284;81;21902;-50
2021/01/29 00:40:41;;;;;;;6.42;4.40;;;;;;;3.96;70.11;98675.09;1767535;80;21398;-52
2021/01/29 00:43:53;;;;;;;6.60;4.67;;;;;;;3.96;70.14;98664.27;1767469;81;21299;-51
2021/01/29 00:46:59;;;;;;;5.00;3.72;;;;;;;3.96;70.11;98673.74;1767542;81;21391;-51
2021/01/29 00:50:05;;;;;;;5.95;4.28;;;;;;;3.93;70.09;98668.66;1767210;80;21339;-51
2021/01/29 00:53:15;;;;;;;6.65;4.80;;;;;;;3.92;70.10;98670.19;1767592;81;21343;-51
2021/01/29 00:56:25;;;;;;;5.30;4.47;;;;;;;3.90;70.26;98670.36;1767634;81;21409;-51
2021/01/29 00:59:33;;;;;;;6.28;4.97;;;;;;;3.89;70.22;98669.19;1766776;80;21243;-50
2021/01/29 01:02:42;;;;;;;7.47;5.87;;;;;;;3.83;70.36;98669.39;1767694;80;21181;-50
2021/01/29 01:05:49;;;;;;;7.22;5.80;;;;;;;3.84;70.54;98667.01;1767554;80;21521;-50
2021/01/29 01:09:02;;;;;;;8.10;5.80;;;;;;;3.83;70.59;98662.63;1751405;80;21185;-50
2021/01/29 01:12:07;;;;;;;7.67;6.08;;;;;;;3.82;70.62;98668.22;1767976;80;21856;-50
2021/01/29 01:15:32;;;;;;;7.83;6.28;;;;;;;3.81;70.68;98659.25;1767323;80;21693;-50
2021/01/29 01:18:39;;;;;;;10.35;8.08;;;;;;;3.76;70.61;98660.27;1767594;81;21433;-50
2021/01/29 01:22:02;;;;;;;9.55;6.72;;;;;;;3.68;70.62;98661.66;1768035;80;21313;-50
2021/01/29 01:25:20;;;;;;;8.40;6.95;;;;;;;3.59;70.68;98672.18;1767562;80;21248;-52
2021/01/29 01:28:27;;;;;;;10.35;6.10;;;;;;;3.50;70.79;98675.93;1767694;81;21236;-52
2021/01/29 01:31:35;;;;;;;8.75;6.50;;;;;;;3.45;70.95;98677.45;1767647;81;21985;-50
2021/01/29 01:35:00;;;;;;;9.70;7.50;;;;;;;3.42;70.92;98675.95;1767632;80;21354;-51
2021/01/29 01:38:06;;;;;;;9.60;7.37;;;;;;;3.33;70.90;98675.61;1767675;81;21409;-49
2021/01/29 01:41:15;;;;;;;9.80;7.70;;;;;;;3.30;70.93;98680.02;1767627;80;21366;-49
2021/01/29 01:44:43;;;;;;;11.20;8.13;;;;;;;3.24;70.97;98690.16;1767445;80;21339;-49
2021/01/29 01:47:51;;;;;;;14.25;9.70;;;;;;;3.12;70.92;98683.44;1767524;81;21413;-50
2021/01/29 01:51:09;;;;;;;12.93;8.78;;;;;;;2.97;71.13;98693.22;1766638;80;21433;-51
2021/01/29 01:54:35;;;;;;;14.75;10.28;;;;;;;2.81;71.66;98690.52;1749948;80;21240;-50
2021/01/29 01:57:40;;;;;;;12.60;8.68;;;;;;;2.74;72.01;98693.05;1767639;81;21809;-48
2021/01/29 02:00:48;;;;;;;11.43;8.10;;;;;;;2.67;72.45;98688.48;1765012;80;21248;-49
2021/01/29 02:03:55;;;;;;;7.85;6.05;;;;;;;2.61;72.58;98690.52;1766746;81;21358;-49
2021/01/29 02:07:56;;;;;;;9.80;6.37;;;;;;;2.57;72.85;98699.98;1767333;80;21350;-52
2021/01/29 02:11:21;;;;;;;7.53;5.75;;;;;;;2.53;72.95;98706.70;1767710;80;21247;-51
2021/01/29 02:14:31;;;;;;;8.90;6.08;;;;;;;2.52;73.09;98703.67;1690333;84;21229;-52
2021/01/29 02:18:23;;;;;;;8.88;6.00;;;;;;;2.54;73.04;98707.03;1767540;81;21335;-51
2021/01/29 02:21:55;;;;;;;10.03;6.87;;;;;;;2.47;73.12;98710.93;1767478;81;21212;-51
2021/01/29 02:25:32;;;;;;;9.68;6.37;;;;;;;2.44;73.35;98709.88;1690301;84;21225;-50
2021/01/29 02:29:07;;;;;;;8.80;6.17;;;;;;;2.48;73.51;98720.70;1767464;81;21529;-49
2021/01/29 02:33:08;;;;;;;9.48;6.42;;;;;;;2.48;73.43;98725.25;1767701;81;21358;-50
2021/01/29 02:36:46;;;;;;;8.60;6.10;;;;;;;2.44;73.35;98730.13;1767560;80;21422;-50
2021/01/29 02:40:06;;;;;;;7.42;5.78;;;;;;;2.37;73.47;98733.66;1755769;80;21292;-49
2021/01/29 02:43:34;;;;;;;9.90;6.33;;;;;;;2.30;73.78;98732.65;1760134;80;21875;-50
2021/01/29 02:47:07;;;;;;;9.75;6.62;;;;;;;2.30;73.97;98737.52;1690455;85;21908;-49
2021/01/29 02:50:47;;;;;;;9.33;6.62;;;;;;;2.29;74.24;98741.73;1661845;85;21292;-52
2021/01/29 02:54:14;;;;;;;12.33;7.53;;;;;;;2.31;74.42;98745.13;1749244;80;21323;-48
2021/01/29 02:57:33;;;;;;;10.03;6.97;;;;;;;2.29;74.50;98750.69;1726020;81;21334;-50
2021/01/29 03:00:48;;;;;;;9.98;6.75;;;;;;;2.30;74.71;98759.12;1746353;80;22074;-50
2021/01/29 03:04:13;;;;;;;12.78;7.70;;;;;;;2.25;74.80;98754.70;1773603;81;21431;-50
2021/01/29 03:07:30;;;;;;;12.60;7.85;;;;;;;2.19;75.01;98761.29;1773281;81;21212;-49
2021/01/29 03:11:13;;;;;;;11.60;7.78;;;;;;;2.09;75.06;98773.56;1773293;79;21212;-50
2021/01/29 03:14:52;;;;;;;12.33;8.30;;;;;;;1.99;75.18;98767.92;1773344;79;21208;-50
2021/01/29 03:18:44;;;;;;;15.72;9.63;;;;;;;1.87;75.25;98778.14;1773466;81;21173;-49
2021/01/29 03:22:31;;;;;;;17.82;10.78;;;;;;;1.77;75.42;98796.80;1773408;81;21906;-50
2021/01/29 03:26:01;;;;;;;16.35;10.70;;;;;;;1.61;75.61;98794.00;1773358;79;21856;-49
2021/01/29 03:29:26;;;;;;;15.68;10.35;;;;;;;1.51;75.73;98797.66;1773299;79;21354;-52
2021/01/29 03:32:49;;;;;;;18.70;12.18;;;;;;;1.40;75.43;98805.14;1773302;81;21338;-50
2021/01/29 03:36:16;;;;;;;15.18;10.60;;;;;;;1.36;75.68;98815.38;1773227;79;21404;-51
2021/01/29 03:39:46;;;;;;;12.53;9.43;;;;;;;1.39;75.57;98821.84;1773287;79;21268;-50
2021/01/29 03:43:22;;;;;;;13.22;9.30;;;;;;;1.39;75.57;98825.88;1773227;81;21362;-50
2021/01/29 03:47:00;;;;;;;11.30;8.53;;;;;;;1.45;75.62;98836.52;1773380;81;21607;-50
2021/01/29 03:50:57;;;;;;;10.95;8.08;;;;;;;1.47;75.38;98839.92;1693350;84;21327;-51
2021/01/29 03:54:38;;;;;;;11.00;7.78;;;;;;;1.41;74.76;98841.89;1657192;85;21245;-51
2021/01/29 03:58:27;;;;;;;13.68;9.90;;;;;;;1.35;74.66;98851.44;1718089;83;21256;-49
2021/01/29 04:02:31;;;;;;;16.17;9.90;;;;;;;1.34;74.40;98861.88;1731665;81;21248;-50
2021/01/29 04:06:00;;;;;;;13.35;10.45;;;;;;;1.28;74.35;98875.13;1774920;79;21220;-50
2021/01/29 04:10:07;;;;;;;18.62;10.53;;;;;;;1.22;74.27;98894.09;1775767;79;21274;-50
2021/01/29 04:13:47;;;;;;;13.60;9.78;;;;;;;1.20;74.40;98889.38;1775500;81;21243;-49
2021/01/29 04:16:56;;;;;;;11.10;8.18;;;;;;;1.20;74.16;98903.34;1775577;81;21228;-51
2021/01/29 04:20:10;;;;;;;9.55;7.30;;;;;;;1.17;74.16;98907.70;1775642;79;21259;-52
2021/01/29 04:23:18;;;;;;;9.75;7.62;;;;;;;1.16;74.08;98908.19;1775537;81;21726;-49
2021/01/29 04:26:44;;;;;;;10.18;7.65;;;;;;;1.16;74.21;98911.37;1775755;81;21200;-50
2021/01/29 04:29:51;;;;;;;;;;;;;;;1.18;74.28;98921.02;1778563;79;21779;-51
2021/01/29 04:33:09;;;;;;;11.88;8.38;;;;;;;1.21;74.25;98930.62;1775720;81;20308;-51
2021/01/29 04:36:16;;;;;;;12.47;9.20;;;;;;;1.24;73.97;98932.52;1775736;79;21207;-51
2021/01/29 04:39:31;;;;;;;12.80;9.53;;;;;;;1.22;73.74;98935.86;1775690;79;21286;-52
2021/01/29 04:42:57;;;;;;;13.55;9.48;;;;;;;1.23;73.60;98949.70;1775815;81;21223;-52
2021/01/29 04:46:10;;;;;;;13.10;9.33;;;;;;;1.21;73.57;98949.00;1775616;79;21795;-51
2021/01/29 04:49:48;;;;;;;15.55;10.88;;;;;;;1.24;73.65;98955.42;1775723;79;21716;-52
2021/01/29 04:53:38;;;;;;;15.30;10.38;;;;;;;1.28;73.56;98963.57;1775756;81;21256;-51
2021/01/29 04:57:04;;;;;;;16.02;10.85;;;;;;;1.27;73.32;98973.98;1775719;81;21342;-51
2021/01/29 05:00:30;;;;;;;15.50;10.50;;;;;;;1.22;73.44;98980.32;1775761;79;21219;-52
2021/01/29 05:04:18;;;;;;;14.25;9.65;;;;;;;1.19;73.50;98981.97;1775662;81;21200;-53
2021/01/29 05:08:14;;;;;;;11.30;7.85;;;;;;;1.12;73.37;98984.95;1775072;81;21252;-53
2021/01/29 05:12:21;;;;;;;8.75;6.15;;;;;;;1.08;73.57;98996.14;1782910;79;21247;-52
2021/01/29 05:15:47;;;;;;;6.47;4.72;;;;;;;1.06;73.73;98998.99;1774614;79;21737;-52
2021/01/29 05:19:04;;;;;;;5.37;4.03;;;;;;;1.08;73.86;99003.73;1777508;80;21362;-53
2021/01/29 05:22:34;;;;;;;5.37;4.25;;;;;;;1.05;73.85;99009.43;1776915;80;21903;-54
2021/01/29 05:25:54;;;;;;;6.08;4.15;;;;;;;1.01;73.90;99017.97;1777090;79;21271;-52
2021/01/29 05:29:31;;;;;;;5.30;3.85;;;;;;;1.03;74.01;99018.67;1777328;79;21183;-52
2021/01/29 05:33:06;;;;;;;6.25;4.50;;;;;;;1.02;73.83;99024.55;1777161;80;21422;-52
2021/01/29 05:36:58;;;;;;;5.60;4.00;;;;;;;1.06;73.89;99027.80;1779007;79;21212;-52
2021/01/29 05:40:44;;;;;;;6.25;3.65;;;;;;;1.13;73.88;99028.39;1777629;79;21366;-51
2021/01/29 05:44:39;;;;;;;5.35;3.80;;;;;;;1.19;73.65;99035.88;1786933;79;21220;-53
2021/01/29 05:48:19;;;;;;;5.87;4.20;;;;;;;1.28;73.50;99048.47;1799816;79;21267;-52
2021/01/29 05:52:05;;;;;;;6.10;3.83;;;;;;;1.33;73.20;99040.75;1793352;78;21220;-52
2021/01/29 05:55:40;;;;;;;5.15;3.65;;;;;;;1.33;72.62;99054.23;1786810;79;21196;-52
2021/01/29 05:59:15;;;;;;;5.58;3.83;;;;;;;1.27;72.22;99060.72;1777261;79;21256;-53
2021/01/29 06:02:44;;;;;;;5.65;3.95;;;;;;;1.16;72.15;99069.00;1775684;79;21698;-53
2021/01/29 06:06:22;;;;;;;5.72;4.00;;;;;;;1.11;72.57;99069.45;1766388;80;21185;-52
2021/01/29 06:10:15;;;;;;;6.50;3.87;;;;;;;1.18;72.66;99071.91;1775940;79;21224;-54
2021/01/29 06:13:47;;;;;;;5.40;3.40;;;;;;;1.27;72.54;99070.15;1653859;86;21212;-52
2021/01/29 06:17:16;;;;;;;5.50;3.75;;;;;;;1.37;72.44;99073.16;1722717;79;21251;-53
2021/01/29 06:20:59;;;;;;;9.33;5.83;;;;;;;1.43;72.29;99079.30;1685685;85;21235;-53
2021/01/29 06:24:25;;;;;;;5.50;3.80;;;;;;;1.46;72.00;99087.08;1802736;78;21756;-53
2021/01/29 06:28:10;;;;;;;6.22;4.25;;;;;;;1.41;71.66;99091.23;1793122;79;21171;-53
2021/01/29 06:31:41;;;;;;;5.95;4.15;;;;;;;1.38;71.19;99092.37;1771269;81;21216;-54
2021/01/29 06:35:21;;;;;;;6.08;3.87;;;;;;;1.37;70.88;99100.12;1767288;79;21219;-53
2021/01/29 06:38:56;;;;;;;6.30;4.25;;;;;;;1.39;70.63;99098.62;1772173;81;21191;-53
2021/01/29 06:42:32;;;;;;;8.05;4.22;;;;;;;1.38;70.57;99104.50;1798761;79;21196;-53
2021/01/29 06:45:41;;;;;;;6.05;4.03;;;;;;;1.47;70.40;99104.94;1778159;79;21212;-53
2021/01/29 06:49:26;;;;;;;10.72;6.75;;;;;;;1.47;70.20;99104.11;1801632;79;21467;-53
2021/01/29 06:53:01;;;;;;;7.17;3.90;;;;;;;1.49;70.19;99108.34;1799187;79;21567;-53
2021/01/29 06:56:45;;;;;;;6.42;4.55;;;;;;;1.53;70.04;99105.71;1786270;79;21761;-52
2021/01/29 06:59:58;;;;;;;6.97;4.85;;;;;;;1.61;69.97;99110.34;1712617;83;21341;-52
2021/01/29 07:03:31;;;;;;;7.45;5.37;;;;;;;1.66;69.44;99113.94;1737506;80;21180;-53
2021/01/29 07:06:49;;;;;;;7.67;5.33;;;;;;;1.68;69.46;99114.64;1773119;79;21331;-53
2021/01/29 07:10:31;;;;;;;8.90;5.67;;;;;;;1.81;69.22;99120.53;1797398;79;21181;-52
2021/01/29 07:14:31;;;;;;;8.43;5.95;;;;;;;1.95;69.05;99125.41;1714682;83;21192;-53
2021/01/29 07:18:14;;;;;;;8.28;5.55;;;;;;;2.12;68.82;99123.21;1786771;79;21228;-52
2021/01/29 07:21:56;;;;;;;8.80;6.62;;;;;;;2.17;68.40;99115.51;1799027;79;21346;-52
2021/01/29 07:25:20;;;;;;;8.05;5.58;;;;;;;2.13;68.12;99132.99;1793217;79;21752;-52
2021/01/29 07:28:59;;;;;;;8.80;6.05;;;;;;;2.08;68.01;99132.11;1804146;79;21868;-54
2021/01/29 07:32:25;;;;;;;9.03;6.28;;;;;;;2.05;67.75;99130.20;1804284;79;21393;-53
2021/01/29 07:35:59;;;;;;;9.18;6.17;;;;;;;1.92;67.44;99141.89;1786328;79;21333;-54
2021/01/29 07:39:40;;;;;;;10.53;6.92;;;;;;;1.79;67.26;99134.66;1791550;79;21205;-53
2021/01/29 07:43:15;;;;;;;10.65;6.87;;;;;;;1.68;67.02;99155.95;1791071;79;21172;-54
2021/01/29 07:47:04;;;;;;;9.83;6.72;;;;;;;1.62;66.97;99155.70;1804115;78;21752;-53
2021/01/29 07:50:39;;;;;;;9.88;7.12;;;;;;;1.54;66.79;99161.33;1804006;78;21197;-53
2021/01/29 07:54:13;;;;;;;18.12;11.97;;;;;;;1.46;66.74;99161.22;1803801;79;21286;-52
2021/01/29 07:57:36;;;;;;;16.15;11.78;;;;;;;1.49;66.57;99164.96;1757915;81;22109;-54
2021/01/29 08:01:02;;;;;;;15.00;8.85;;;;;;;1.49;66.37;99170.35;1766568;80;21370;-53
2021/01/29 08:04:16;;;;;;;14.55;9.63;;;;;;;1.50;66.11;99172.56;1766691;80;21227;-53
2021/01/29 08:07:24;;;;;;;;;;;;;;;1.59;65.65;99177.05;1771606;79;21268;-53
2021/01/29 08:10:45;;;;;;;17.00;8.93;;;;;;;1.65;64.39;99193.98;1787407;79;20260;-53
2021/01/29 08:14:13;;;;;;;11.08;8.65;;;;;;;1.69;63.82;99193.19;1778323;79;21876;-53
2021/01/29 08:17:31;;;;;;;20.88;12.00;;;;;;;1.69;62.90;99190.49;1805618;79;21188;-51
2021/01/29 08:21:16;;;;;;;12.60;8.70;;;;;;;1.70;62.15;99201.13;1800954;79;21690;-54
2021/01/29 08:24:57;;;;;;;16.50;11.05;;;;;;;1.77;61.60;99194.16;1773046;81;21362;-54
2021/01/29 08:28:31;;;;;;;19.62;11.88;;;;;;;1.93;61.11;99212.38;1799757;79;21339;-54
2021/01/29 08:32:05;;;;;;;16.45;10.38;;;;;;;1.93;60.14;99209.69;1751221;82;21366;-51
2021/01/29 08:35:25;;;;;;;16.67;10.90;;;;;;;1.84;59.45;99228.12;1777976;80;21365;-54
2021/01/29 08:38:52;;;;;;;16.95;11.95;;;;;;;1.63;59.39;99210.83;1788411;79;21176;-54
2021/01/29 08:42:34;;;;;;;14.40;10.70;;;;;;;1.41;59.66;99209.33;1772377;81;21316;-53
2021/01/29 08:46:11;;;;;;;16.32;10.35;;;;;;;1.29;59.95;99202.44;1750887;80;21228;-55
2021/01/29 08:49:43;;;;;;;17.57;11.53;;;;;;;1.33;60.43;99193.05;1751366;80;21219;-53
2021/01/29 08:53:13;;;;;;;15.65;10.90;;;;;;;1.49;60.60;99204.06;1723202;82;21325;-51
2021/01/29 08:56:30;;;;;;;12.10;9.55;;;;;;;1.52;60.31;99194.32;1766579;80;21236;-53
2021/01/29 08:59:39;;;;;;;15.95;9.20;;;;;;;1.58;60.36;99186.64;1788177;79;21220;-53
2021/01/29 09:03:07;;;;;;;20.37;11.70;;;;;;;1.65;60.31;99196.67;1805305;79;21448;-53
2021/01/29 09:06:26;;;;;;;15.70;11.45;;;;;;;1.75;60.23;99192.59;1751954;79;21376;-54
2021/01/29 09:09:36;;;;;;;13.75;10.08;;;;;;;1.95;59.99;99186.11;1774401;81;21757;-52
2021/01/29 09:12:45;;;;;;;16.60;11.22;;;;;;;2.15;59.69;99178.23;1774694;80;21322;-52
2021/01/29 09:16:08;;;;;;;15.80;10.75;;;;;;;2.28;58.38;99178.72;1785342;80;21416;-52
2021/01/29 09:19:24;;;;;;;18.35;11.75;;;;;;;2.38;58.46;99174.93;1750060;80;21271;-52
2021/01/29 09:23:01;;;;;;;18.52;12.28;;;;;;;2.73;58.39;99179.47;1766321;81;21196;-52
2021/01/29 09:26:17;;;;;;;13.95;10.32;;;;;;;3.04;57.90;99173.47;1766803;80;21530;-53
2021/01/29 09:29:38;;;;;;;14.00;10.43;;;;;;;3.22;56.84;99166.66;1769401;80;21237;-53
2021/01/29 09:33:17;;;;;;;17.30;10.38;;;;;;;3.22;56.25;99163.96;1767370;81;21177;-53
2021/01/29 09:36:33;;;;;;;16.32;12.00;;;;;;;3.25;56.25;99162.28;1767462;81;21351;-54
2021/01/29 09:39:50;;;;;;;17.95;11.97;;;;;;;3.35;55.54;99160.83;1767574;80;21838;-52
2021/01/29 09:43:17;;;;;;;18.62;11.18;;;;;;;3.34;55.46;99161.84;1766249;81;21248;-53
2021/01/29 09:46:36;;;;;;;18.52;10.85;;;;;;;3.42;55.71;99156.48;1797138;79;21749;-53
2021/01/29 09:49:45;;;;;;;19.40;11.70;;;;;;;3.52;55.82;99155.87;1796999;80;21749;-53
2021/01/29 09:53:21;;;;;;;16.20;10.43;;;;;;;3.69;55.38;99146.31;1741525;82;21725;-53
2021/01/29 09:56:26;;;;;;;13.95;10.23;;;;;;;3.77;54.95;99155.83;1796241;79;21204;-53
2021/01/29 09:59:40;;;;;;;12.90;9.48;;;;;;;3.84;55.02;99137.05;1796303;80;21251;-52
2021/01/29 10:03:05;;;;;;;14.13;9.80;;;;;;;3.89;54.95;99138.27;1738882;82;21207;-52
2021/01/29 10:06:30;;;;;;;13.30;9.83;;;;;;;3.92;54.54;99139.28;1789520;79;21209;-52
2021/01/29 10:09:43;;;;;;;14.20;10.55;;;;;;;4.05;54.42;99126.63;1778772;80;21955;-53
2021/01/29 10:12:55;;;;;;;27.65;16.73;;;;;;;4.23;54.62;99117.88;1797187;79;21472;-54
2021/01/29 10:16:37;;;;;;;17.42;11.35;;;;;;;4.29;53.95;99118.06;1787183;79;21327;-52
2021/01/29 10:19:51;;;;;;;14.25;10.08;;;;;;;4.35;53.92;99122.81;1750769;82;21725;-52
2021/01/29 10:23:23;;;;;;;13.78;9.93;;;;;;;4.51;53.73;99126.89;1804977;79;21539;-52
2021/01/29 10:26:43;;;;;;;12.65;10.10;;;;;;;4.63;53.50;99117.08;1809087;79;21848;-52
2021/01/29 10:29:51;;;;;;;15.68;10.75;;;;;;;4.73;53.14;99120.44;1809287;79;21434;-52
2021/01/29 10:33:15;;;;;;;15.32;11.22;;;;;;;4.83;52.69;99119.27;1776067;80;21180;-52
2021/01/29 10:36:29;;;;;;;14.45;10.38;;;;;;;4.87;52.27;99113.00;1782253;80;21244;-51
2021/01/29 10:39:34;;;;;;;15.32;11.35;;;;;;;4.85;51.97;99119.09;1807835;79;21208;-52
2021/01/29 10:42:49;;;;;;;15.53;10.85;;;;;;;4.80;51.97;99098.43;1776517;80;21327;-53
2021/01/29 10:46:30;;;;;;;14.80;9.83;;;;;;;4.81;52.42;99093.33;1804532;79;21344;-51
2021/01/29 10:50:05;;;;;;;13.95;10.88;;;;;;;4.72;52.41;99088.95;1772148;80;21192;-53
2021/01/29 10:53:28;;;;;;;18.07;10.70;;;;;;;4.66;52.65;99093.70;1805085;79;21728;-53
2021/01/29 10:56:57;;;;;;;17.20;11.57;;;;;;;4.50;52.39;99095.91;1804671;79;21183;-51
2021/01/29 11:00:14;;;;;;;14.87;10.70;;;;;;;4.29;52.78;99092.83;1773380;80;21199;-52
2021/01/29 11:03:26;;;;;;;15.03;11.15;;;;;;;4.18;53.49;99080.48;1768882;80;21355;-52
2021/01/29 11:06:35;;;;;;;16.65;11.10;;;;;;;4.09;53.71;99076.04;1780732;79;21438;-52
2021/01/29 11:09:47;;;;;;;15.43;11.15;;;;;;;4.03;54.05;99075.86;1768148;80;21378;-52
2021/01/29 11:13:14;;;;;;;14.20;10.32;;;;;;;3.99;54.19;99075.86;1697192;83;21219;-52
2021/01/29 11:16:20;;;;;;;15.93;11.50;;;;;;;3.92;54.26;99063.50;1754889;81;21240;-52
2021/01/29 11:19:32;;;;;;;14.13;10.98;;;;;;;3.87;54.79;99065.02;1725842;82;21747;-52
2021/01/29 11:23:03;;;;;;;13.53;10.13;;;;;;;3.82;54.72;99071.44;1720096;83;21246;-53
2021/01/29 11:26:23;;;;;;;16.50;11.05;;;;;;;3.75;54.65;99063.63;1720487;82;21255;-51
2021/01/29 11:29:50;;;;;;;17.07;11.33;;;;;;;3.66;55.25;99068.19;1761276;79;21570;-51
2021/01/29 11:33:08;;;;;;;15.25;10.13;;;;;;;3.69;55.43;99069.20;1747209;80;21259;-53
2021/01/29 11:36:24;;;;;;;14.55;10.20;;;;;;;3.59;55.05;99049.55;1748783;82;21231;-53
2021/01/29 11:39:45;;;;;;;15.95;10.60;;;;;;;3.56;55.25;99055.78;1719947;83;21393;-52
2021/01/29 11:43:07;;;;;;;19.82;12.53;;;;;;;3.58;55.18;99049.71;1719559;83;21559;-52
2021/01/29 11:46:33;;;;;;;17.73;10.60;;;;;;;3.57;55.11;99050.20;1769658;81;21717;-53
2021/01/29 11:49:58;;;;;;;15.43;9.85;;;;;;;3.62;55.46;99050.56;1743783;82;21785;-53
2021/01/29 11:53:25;;;;;;;18.50;11.20;;;;;;;3.66;55.19;99054.66;1710638;83;21230;-52
2021/01/29 11:56:34;;;;;;;18.30;10.93;;;;;;;3.68;55.26;99045.84;1756734;80;21706;-53
2021/01/29 11:59:56;;;;;;;18.98;11.15;;;;;;;3.74;55.22;99059.23;1707882;82;21239;-53
2021/01/29 12:03:26;;;;;;;16.32;11.57;;;;;;;3.71;55.03;99060.39;1735588;82;22046;-54
2021/01/29 12:06:48;;;;;;;14.50;10.48;;;;;;;3.65;54.82;99050.23;1759801;81;21785;-53
2021/01/29 12:10:03;;;;;;;14.60;10.48;;;;;;;3.61;54.97;99049.38;1734381;80;21192;-52
2021/01/29 12:13:47;;;;;;;15.28;10.55;;;;;;;3.60;54.89;99053.94;1767857;81;21188;-54
2021/01/29 12:16:53;;;;;;;16.70;11.43;;;;;;;3.52;54.98;99054.44;1719570;83;21254;-53
2021/01/29 12:20:01;;;;;;;15.18;11.50;;;;;;;3.48;55.54;99047.64;1805740;78;21399;-52
2021/01/29 12:23:19;;;;;;;21.33;14.45;;;;;;;3.42;55.68;99041.05;1780744;78;21486;-53
2021/01/29 12:26:45;;;;;;;32.70;17.80;;;;;;;3.36;55.51;99037.65;1745362;81;21581;-51
2021/01/29 12:30:15;;;;;;;22.98;15.43;;;;;;;3.32;55.82;99032.20;1766374;80;21372;-53
2021/01/29 12:33:28;;;;;;;22.58;14.90;;;;;;;3.27;56.33;99039.13;1765975;81;21218;-53
2021/01/29 12:36:37;;;;;;;17.48;11.95;;;;;;;3.24;56.77;99036.72;1766165;81;21256;-51
2021/01/29 12:39:54;;;;;;;23.47;13.48;;;;;;;3.30;57.17;99033.39;1766178;80;21210;-52
2021/01/29 12:43:07;;;;;;;22.67;15.65;;;;;;;3.25;57.10;99029.80;1766618;81;21379;-53
2021/01/29 12:46:32;;;;;;;21.12;14.47;;;;;;;3.24;57.42;99032.17;1766733;80;21266;-53
2021/01/29 12:50:18;;;;;;;18.12;13.10;;;;;;;3.30;57.64;99030.69;1764966;80;21225;-51
2021/01/29 12:53:30;;;;;;;21.17;13.80;;;;;;;3.29;57.69;99028.97;1789384;79;21146;-52
2021/01/29 12:56:47;;;;;;;26.60;15.75;;;;;;;3.19;58.39;99031.81;1791958;80;21268;-53
2021/01/29 13:00:02;;;;;;;21.15;13.90;;;;;;;3.12;59.07;99028.08;1797944;80;21204;-53
2021/01/29 13:03:45;;;;;;;20.65;12.68;;;;;;;3.12;59.47;99017.27;1788559;79;21757;-52
2021/01/29 13:07:10;;;;;;;21.10;12.25;;;;;;;3.08;59.69;99018.58;1766367;80;21200;-52
2021/01/29 13:10:34;;;;;;;22.85;13.90;;;;;;;2.97;59.95;99004.00;1768017;80;21427;-54
2021/01/29 13:13:50;;;;;;;20.85;14.50;;;;;;;2.77;60.29;98997.16;1723848;82;21212;-53
2021/01/29 13:17:26;;;;;;;21.75;14.53;;;;;;;2.61;61.00;98993.86;1763606;80;21864;-52
2021/01/29 13:20:40;;;;;;;22.05;14.83;;;;;;;2.49;61.61;98989.72;1806067;79;21722;-53
2021/01/29 13:23:47;;;;;;;24.30;14.73;;;;;;;2.37;62.09;98986.09;1806934;79;21733;-53
2021/01/29 13:26:53;;;;;;;20.72;13.85;;;;;;;2.32;62.92;98994.67;1795410;79;21551;-52
2021/01/29 13:29:59;;;;;;;21.90;14.75;;;;;;;2.26;63.83;98987.70;1774672;81;21251;-53
2021/01/29 13:33:08;;;;;;;20.45;14.43;;;;;;;2.20;64.49;98993.24;1737601;82;21406;-53
2021/01/29 13:36:30;;;;;;;19.57;14.25;;;;;;;2.16;66.09;98988.29;1760528;81;21200;-53
2021/01/29 13:39:39;;;;;;;25.77;15.43;;;;;;;2.05;66.38;98988.54;1774917;79;21219;-53
2021/01/29 13:42:46;;;;;;;22.27;14.50;;;;;;;2.04;66.61;98986.86;1801021;79;21184;-53
2021/01/29 13:45:53;;;;;;;22.98;15.75;;;;;;;2.01;66.96;98987.17;1774541;81;21710;-53
2021/01/29 13:49:28;;;;;;;25.82;15.93;;;;;;;2.04;67.23;98993.60;1775308;79;21701;-52
2021/01/29 13:52:41;;;;;;;32.10;20.48;;;;;;;2.07;67.38;98993.28;1777469;79;21701;-53
2021/01/29 13:56:13;;;;;;;46.70;24.10;;;;;;;2.07;67.54;99001.38;1775139;79;21218;-54
2021/01/29 13:59:42;;;;;;;62.93;29.07;;;;;;;2.04;67.57;98986.36;1795403;79;21208;-54
2021/01/29 14:03:07;;;;;;;29.92;18.42;;;;;;;1.99;67.69;98981.94;1796039;79;21743;-54
2021/01/29 14:06:18;;;;;;;22.58;15.43;;;;;;;1.99;67.82;98987.82;1795292;79;21323;-52
2021/01/29 14:09:25;;;;;;;28.55;16.90;;;;;;;1.90;68.04;98980.67;1771110;79;21805;-52
2021/01/29 14:12:45;;;;;;;23.10;15.90;;;;;;;1.80;68.31;98973.16;1762427;79;21218;-53
2021/01/29 14:16:08;;;;;;;24.95;16.52;;;;;;;1.75;68.42;98979.51;1777479;79;21212;-51
2021/01/29 14:19:36;;;;;;;;;;;;;;;1.70;68.48;98983.20;1761683;81;21294;-53
2021/01/29 14:23:04;;;;;;;24.85;15.13;;;;;;;1.65;68.67;98981.45;1789279;79;20210;-54
2021/01/29 14:26:36;;;;;;;21.95;14.47;;;;;;;1.60;68.78;98995.41;1790642;80;21193;-53
2021/01/29 14:30:05;;;;;;;26.60;15.65;;;;;;;1.60;68.89;98983.77;1777386;80;21470;-54
2021/01/29 14:33:34;;;;;;;25.77;16.57;;;;;;;1.61;68.84;98980.91;1771709;79;21234;-54
2021/01/29 14:37:01;;;;;;;23.42;14.73;;;;;;;1.68;68.78;98993.28;1778163;79;21312;-55
2021/01/29 14:40:33;;;;;;;25.25;15.85;;;;;;;1.67;68.63;98992.91;1790846;79;21566;-53
2021/01/29 14:43:55;;;;;;;26.75;15.58;;;;;;;1.63;68.89;98991.05;1787829;79;21170;-54
2021/01/29 14:47:21;;;;;;;22.93;14.73;;;;;;;1.65;68.76;98996.29;1770215;80;21494;-54
2021/01/29 14:50:46;;;;;;;26.33;15.08;;;;;;;1.60;68.53;98994.55;1778169;79;21359;-55
2021/01/29 14:54:17;;;;;;;21.30;14.98;;;;;;;1.55;68.50;98997.19;1765924;79;21165;-54
2021/01/29 14:57:48;;;;;;;25.15;17.45;;;;;;;1.55;68.42;99003.10;1788466;79;21546;-54
2021/01/29 15:00:55;;;;;;;25.02;16.70;;;;;;;1.54;68.75;99004.94;1789196;79;21208;-54
2021/01/29 15:04:11;;;;;;;23.52;16.25;;;;;;;1.61;68.97;99004.32;1774535;80;21312;-54
2021/01/29 15:07:42;;;;;;;24.00;17.12;;;;;;;1.63;69.25;99000.98;1788403;79;21177;-53
2021/01/29 15:10:47;;;;;;;22.27;15.40;;;;;;;1.63;69.51;98995.59;1765890;79;21244;-53
2021/01/29 15:14:00;;;;;;;25.32;17.07;;;;;;;1.60;69.71;98996.75;1772724;80;21936;-54
2021/01/29 15:17:08;;;;;;;21.80;16.10;;;;;;;1.59;69.98;98997.73;1762692;81;21169;-53
2021/01/29 15:20:40;;;;;;;21.93;15.83;;;;;;;1.63;70.20;98996.94;1717509;83;21235;-53
2021/01/29 15:23:46;;;;;;;23.87;16.73;;;;;;;1.61;70.27;98990.34;1772486;81;21326;-54
2021/01/29 15:27:02;;;;;;;22.58;14.78;;;;;;;1.62;70.37;98990.69;1772644;81;21251;-53
2021/01/29 15:30:20;;;;;;;22.98;14.63;;;;;;;1.58;70.39;99006.84;1774046;79;21228;-53
2021/01/29 15:33:41;;;;;;;23.47;16.75;;;;;;;1.56;70.50;99006.14;1749411;82;21323;-54
2021/01/29 15:36:55;;;;;;;23.67;17.20;;;;;;;1.54;70.62;99003.59;1773113;80;21330;-55
2021/01/29 15:40:17;;;;;;;26.33;17.55;;;;;;;1.54;70.80;99017.08;1772745;81;21221;-55
2021/01/29 15:43:39;;;;;;;30.12;19.05;;;;;;;1.59;70.87;99017.96;1764084;79;21366;-53
2021/01/29 15:46:53;;;;;;;28.15;17.42;;;;;;;1.59;70.75;99022.53;1805968;79;21365;-56
2021/01/29 15:49:59;;;;;;;26.48;17.67;;;;;;;1.56;70.77;99019.62;1777355;80;21832;-55
2021/01/29 15:53:07;;;;;;;29.18;17.95;;;;;;;1.53;70.82;99030.70;1810983;79;21334;-55
2021/01/29 15:56:34;;;;;;;26.05;18.65;;;;;;;1.52;70.91;99024.98;1777362;80;21916;-55